Willow Island, West Virginia
Current Conditions -  °F | °C
As of 5:53 PM on Wednesday 22 Oct 2014 (Local Time) from KPKB Reporting Station
Overcast Overcast  
Wind Chill: 51°   Ceiling: 2700
Heat Index: 51°   Visibility: 10mi
Dew Point: 40°   Wind: 6mph
Humidity: 66%   Direction: 340°NNW
Pressure: 30.23"   Gusts: NA
Location:  39.3518°N, 81.2939°W
Report Text: KPKB 222153Z 34005KT 10SM OVC027 11/04 A3023 RMK AO2 SLP238 T01060044
Loading
Personal Weather Stations






























Interactive Weather Map New forecast layout! Learn more

10-Day Weather Forecast

Advertisements
Track Severe Weather on mobile